createdAt,value
2017-07-16T00:02:12.914Z,3.60
2017-07-16T00:04:41.288Z,3.60
2017-07-16T00:07:09.680Z,3.50
2017-07-16T00:09:38.115Z,3.20
2017-07-16T00:12:06.542Z,3.40
2017-07-16T00:14:34.934Z,3.60
2017-07-16T00:17:04.390Z,4.60
2017-07-16T00:19:32.789Z,3.70
2017-07-16T00:22:01.182Z,3.93
2017-07-16T00:24:29.586Z,3.93
2017-07-16T00:26:58.754Z,3.87
2017-07-16T00:29:27.144Z,4.13
2017-07-16T00:31:55.596Z,4.03
2017-07-16T00:34:23.999Z,4.63
2017-07-16T00:36:52.400Z,4.20
2017-07-16T00:39:20.966Z,3.50
2017-07-16T00:41:50.138Z,4.50
2017-07-16T00:44:18.514Z,3.73
2017-07-16T00:46:47.033Z,4.70
2017-07-16T00:49:16.202Z,4.20
2017-07-16T00:51:44.600Z,3.80
2017-07-16T00:54:13.032Z,3.80
2017-07-16T00:56:41.419Z,3.77
2017-07-16T00:59:09.830Z,3.70
2017-07-16T01:01:39.016Z,3.80
2017-07-16T01:04:07.412Z,3.97
2017-07-16T01:06:35.813Z,3.53
2017-07-16T01:09:03.452Z,3.70
2017-07-16T01:11:32.622Z,4.10
2017-07-16T01:14:01.009Z,3.73
2017-07-16T01:16:29.628Z,3.27
2017-07-16T01:18:58.026Z,3.27
2017-07-16T01:21:26.416Z,3.57
2017-07-16T01:23:55.005Z,2.90
2017-07-16T01:26:23.379Z,2.73
2017-07-16T01:28:51.456Z,2.70
2017-07-16T01:31:19.901Z,2.17
2017-07-16T01:33:48.292Z,3.23
2017-07-16T01:36:16.686Z,2.70
2017-07-16T01:38:45.110Z,3.23
2017-07-16T01:41:14.282Z,2.70
2017-07-16T01:43:42.674Z,3.10
2017-07-16T01:46:11.290Z,1.97
2017-07-16T01:48:39.694Z,2.50
2017-07-16T01:51:08.080Z,2.80
2017-07-16T01:53:36.485Z,2.17
2017-07-16T01:56:04.216Z,2.37
2017-07-16T01:58:32.606Z,2.17
2017-07-16T02:01:01.032Z,2.20
2017-07-16T02:03:29.426Z,1.80
2017-07-16T02:05:57.825Z,2.07
2017-07-16T02:08:27.045Z,2.40
2017-07-16T02:10:55.433Z,2.33
2017-07-16T02:13:23.807Z,2.30
2017-07-16T02:15:52.618Z,2.23
2017-07-16T02:18:21.774Z,2.23
2017-07-16T02:20:50.194Z,2.53
2017-07-16T02:23:19.723Z,1.90
2017-07-16T02:25:48.123Z,2.30
2017-07-16T02:28:16.529Z,2.63
2017-07-16T02:30:44.945Z,2.50
2017-07-16T02:33:14.096Z,2.67
2017-07-16T02:35:42.490Z,2.10
2017-07-16T02:38:10.927Z,2.50
2017-07-16T02:40:39.342Z,2.30
2017-07-16T02:43:08.546Z,2.50
2017-07-16T02:45:37.337Z,2.23
2017-07-16T02:48:05.418Z,2.27
2017-07-16T02:50:34.578Z,2.30
2017-07-16T02:53:03.220Z,2.40
2017-07-16T02:55:31.629Z,2.40
2017-07-16T02:58:00.044Z,2.30
2017-07-16T03:00:28.652Z,2.80
2017-07-16T03:02:57.041Z,2.50
2017-07-16T03:05:25.442Z,2.77
2017-07-16T03:07:54.213Z,2.83
2017-07-16T03:10:22.612Z,2.80
2017-07-16T03:12:51.006Z,2.83
2017-07-16T03:15:19.648Z,3.07
2017-07-16T03:17:48.055Z,2.50
2017-07-16T03:20:16.461Z,3.10
2017-07-16T03:22:44.916Z,2.80
2017-07-16T03:25:24.566Z,2.70
2017-07-16T03:27:53.118Z,2.90
2017-07-16T03:30:21.518Z,2.43
2017-07-16T03:32:49.906Z,2.97
2017-07-16T03:35:18.529Z,2.80
2017-07-16T03:37:47.707Z,2.50
2017-07-16T03:40:16.882Z,2.77
2017-07-16T03:42:45.439Z,2.90
2017-07-16T03:45:13.835Z,2.40
2017-07-16T03:47:42.246Z,2.60
2017-07-16T03:50:10.704Z,2.67
2017-07-16T03:52:39.102Z,2.63
2017-07-16T03:55:07.521Z,2.70
2017-07-16T03:57:36.297Z,2.70
2017-07-16T04:00:05.470Z,3.00
2017-07-16T04:02:33.866Z,3.20
2017-07-16T04:05:03.056Z,2.40
2017-07-16T04:07:31.443Z,2.43
2017-07-16T04:09:59.848Z,2.73
2017-07-16T04:12:28.089Z,3.17
2017-07-16T04:14:57.241Z,2.60
2017-07-16T04:17:25.660Z,2.30
2017-07-16T04:19:54.850Z,2.00
2017-07-16T04:22:23.236Z,2.67
2017-07-16T04:24:52.392Z,2.70
2017-07-16T04:27:20.842Z,2.50
2017-07-16T04:29:48.897Z,2.67
2017-07-16T04:32:18.038Z,2.53
2017-07-16T04:34:46.488Z,2.30
2017-07-16T04:37:14.862Z,2.30
2017-07-16T04:39:43.258Z,2.20
2017-07-16T04:42:11.925Z,2.40
2017-07-16T04:44:40.317Z,2.20
2017-07-16T04:47:08.717Z,2.60
2017-07-16T04:49:37.326Z,2.13
2017-07-16T04:52:05.705Z,2.80
2017-07-16T04:54:34.124Z,2.53
2017-07-16T04:57:02.563Z,2.97
2017-07-16T04:59:30.959Z,2.60
2017-07-16T05:02:00.117Z,2.07
2017-07-16T05:04:28.324Z,2.87
2017-07-16T05:06:56.741Z,2.60
2017-07-16T05:09:25.152Z,3.20
2017-07-16T05:11:53.671Z,2.20
2017-07-16T05:14:22.841Z,3.10
2017-07-16T05:16:51.238Z,2.17
2017-07-16T05:19:20.750Z,2.53
2017-07-16T05:21:49.142Z,2.90
2017-07-16T05:24:17.538Z,2.63
2017-07-16T05:26:46.107Z,2.80
2017-07-16T05:29:14.511Z,3.33
2017-07-16T05:31:42.907Z,2.67
2017-07-16T05:34:11.667Z,2.53
2017-07-16T05:36:40.106Z,2.67
2017-07-16T05:39:09.271Z,3.07
2017-07-16T05:41:38.234Z,2.67
2017-07-16T05:44:06.624Z,3.20
2017-07-16T05:46:35.098Z,2.30
2017-07-16T05:49:04.214Z,3.37
2017-07-16T05:51:32.618Z,2.80
2017-07-16T05:54:01.788Z,2.40
2017-07-16T05:56:31.200Z,2.57
2017-07-16T05:58:59.586Z,2.53
2017-07-16T06:01:27.993Z,2.80
2017-07-16T06:03:56.678Z,2.87
2017-07-16T06:06:25.079Z,2.07
2017-07-16T06:08:53.483Z,2.57
2017-07-16T06:11:21.902Z,2.63
2017-07-16T06:13:50.386Z,3.33
2017-07-16T06:16:18.808Z,3.00
2017-07-16T06:18:47.469Z,3.07
2017-07-16T06:21:15.873Z,2.63
2017-07-16T06:23:44.287Z,2.70
2017-07-16T06:26:12.725Z,3.67
2017-07-16T06:28:43.213Z,2.30
2017-07-16T06:31:11.620Z,3.00
2017-07-16T06:33:40.306Z,2.90
2017-07-16T06:36:08.697Z,2.50
2017-07-16T06:38:37.095Z,3.47
2017-07-16T06:41:05.850Z,2.83
2017-07-16T06:43:34.251Z,2.93
2017-07-16T06:46:02.660Z,2.50
2017-07-16T06:48:31.272Z,2.80
2017-07-16T06:50:59.667Z,3.20
2017-07-16T06:53:28.056Z,2.60
2017-07-16T06:55:56.671Z,2.80
2017-07-16T06:58:25.072Z,2.60
2017-07-16T07:00:53.112Z,1.80
2017-07-16T07:03:21.720Z,3.23
2017-07-16T07:05:50.107Z,3.43
2017-07-16T07:08:19.291Z,4.47
2017-07-16T07:10:48.928Z,3.93
2017-07-16T07:13:17.318Z,2.80
2017-07-16T07:15:45.723Z,3.63
2017-07-16T07:18:14.357Z,3.43
2017-07-16T07:20:42.557Z,3.50
2017-07-16T07:23:10.956Z,3.60
2017-07-16T07:25:39.512Z,3.20
2017-07-16T07:28:07.960Z,3.37
2017-07-16T07:30:36.375Z,3.60
2017-07-16T07:33:05.700Z,4.97
2017-07-16T07:35:34.111Z,3.60
2017-07-16T07:38:03.368Z,3.80
2017-07-16T07:40:31.864Z,3.50
2017-07-16T07:43:00.375Z,4.50
2017-07-16T07:45:28.801Z,4.03
2017-07-16T07:47:57.290Z,4.33
2017-07-16T07:50:25.709Z,3.80
2017-07-16T07:52:54.124Z,4.07
2017-07-16T07:55:22.635Z,3.70
2017-07-16T07:57:51.069Z,3.80
2017-07-16T08:00:19.456Z,4.97
2017-07-16T08:02:49.013Z,5.10
2017-07-16T08:05:17.867Z,3.60
2017-07-16T08:07:46.278Z,3.80
2017-07-16T08:10:14.759Z,4.43
2017-07-16T08:12:43.396Z,4.57
2017-07-16T08:15:11.835Z,4.80
2017-07-16T08:17:40.473Z,3.57
2017-07-16T08:20:08.869Z,4.77
2017-07-16T08:22:37.271Z,5.10
2017-07-16T08:25:05.847Z,4.20
2017-07-16T08:27:34.261Z,4.00
2017-07-16T08:30:02.687Z,4.20
2017-07-16T08:32:31.350Z,4.90
2017-07-16T08:34:59.744Z,4.30
2017-07-16T08:37:28.155Z,3.90
2017-07-16T08:39:56.592Z,4.80
2017-07-16T08:42:24.982Z,4.70
2017-07-16T08:44:53.359Z,4.40
2017-07-16T08:47:21.815Z,4.20
2017-07-16T08:49:50.249Z,3.60
2017-07-16T08:52:18.645Z,4.67
2017-07-16T08:54:47.362Z,4.73
2017-07-16T08:57:15.809Z,4.60
2017-07-16T08:59:44.228Z,4.23
2017-07-16T09:02:12.916Z,5.33
2017-07-16T09:04:41.452Z,6.10
2017-07-16T09:07:10.833Z,5.00
2017-07-16T09:09:39.290Z,4.80
2017-07-16T09:12:07.717Z,3.23
2017-07-16T09:14:36.892Z,4.20
2017-07-16T09:17:05.629Z,5.13
2017-07-16T09:19:34.030Z,5.33
2017-07-16T09:22:02.414Z,5.70
2017-07-16T09:24:31.178Z,4.97
2017-07-16T09:26:59.671Z,4.63
2017-07-16T09:29:28.091Z,5.53
2017-07-16T09:31:56.691Z,4.83
2017-07-16T09:34:25.086Z,6.10
2017-07-16T09:36:54.239Z,3.90
2017-07-16T09:39:22.674Z,5.73
2017-07-16T09:41:51.072Z,5.30
2017-07-16T09:44:19.468Z,5.50
2017-07-16T09:46:48.113Z,6.07
2017-07-16T09:49:16.503Z,5.37
2017-07-16T09:51:44.918Z,6.20
2017-07-16T09:54:14.506Z,5.70
2017-07-16T09:56:42.939Z,6.00
2017-07-16T09:59:12.110Z,5.40
2017-07-16T10:01:40.619Z,7.03
2017-07-16T10:04:09.024Z,5.67
2017-07-16T10:06:37.435Z,5.10
2017-07-16T10:09:06.063Z,5.23
2017-07-16T10:11:34.458Z,7.00
2017-07-16T10:14:02.842Z,6.10
2017-07-16T10:16:31.417Z,5.83
2017-07-16T10:18:59.921Z,6.03
2017-07-16T10:21:28.318Z,6.53
2017-07-16T10:23:57.524Z,6.30
2017-07-16T10:26:25.935Z,6.73
2017-07-16T10:28:54.486Z,8.13
2017-07-16T10:31:23.345Z,6.70
2017-07-16T10:33:51.994Z,6.47
2017-07-16T10:36:20.382Z,8.77
2017-07-16T10:38:49.084Z,7.40
2017-07-16T10:41:17.505Z,8.23
2017-07-16T10:43:45.925Z,8.80
2017-07-16T10:46:14.606Z,7.87
2017-07-16T10:48:42.999Z,8.60
2017-07-16T10:51:11.404Z,8.50
2017-07-16T10:53:39.848Z,7.80
2017-07-16T10:56:08.244Z,8.97
2017-07-16T10:58:36.647Z,6.80
2017-07-16T11:01:05.171Z,10.90
2017-07-16T11:03:33.575Z,8.73
2017-07-16T11:06:01.973Z,7.90
2017-07-16T11:08:30.619Z,9.90
2017-07-16T11:10:59.037Z,8.47
2017-07-16T11:13:27.459Z,8.40
2017-07-16T11:15:56.724Z,8.50
2017-07-16T11:18:25.134Z,8.40
2017-07-16T11:20:54.308Z,8.30
2017-07-16T11:23:22.936Z,6.67
2017-07-16T11:25:51.325Z,7.90
2017-07-16T11:28:19.732Z,8.40
2017-07-16T11:30:48.268Z,7.83
2017-07-16T11:33:16.683Z,7.87
2017-07-16T11:35:45.092Z,6.97
2017-07-16T11:38:13.706Z,7.83
2017-07-16T11:40:42.111Z,6.73
2017-07-16T11:43:10.599Z,6.67
2017-07-16T11:45:39.353Z,7.57
2017-07-16T11:48:07.759Z,5.40
2017-07-16T11:50:36.163Z,5.33
2017-07-16T11:53:04.807Z,8.20
2017-07-16T11:55:33.204Z,6.77
2017-07-16T11:58:01.608Z,7.17
2017-07-16T12:00:30.046Z,7.30
2017-07-16T12:02:58.541Z,7.30
2017-07-16T12:05:26.950Z,8.37
2017-07-16T12:07:55.498Z,7.43
2017-07-16T12:10:23.913Z,6.43
2017-07-16T12:12:52.310Z,6.83
2017-07-16T12:15:21.775Z,7.40
2017-07-16T12:17:50.169Z,6.60
2017-07-16T12:20:18.571Z,7.80
2017-07-16T12:22:47.065Z,8.40
2017-07-16T12:25:16.233Z,7.10
2017-07-16T12:27:44.637Z,9.00
2017-07-16T12:30:13.152Z,7.50
2017-07-16T12:32:41.753Z,6.67
2017-07-16T12:35:10.276Z,7.50
2017-07-16T12:37:38.718Z,6.60
2017-07-16T12:40:07.129Z,7.73
2017-07-16T12:42:36.300Z,8.03
2017-07-16T12:45:05.040Z,6.63
2017-07-16T12:47:33.431Z,7.10
2017-07-16T12:50:01.843Z,6.37
2017-07-16T12:52:30.263Z,6.80
2017-07-16T12:54:58.673Z,8.37
2017-07-16T12:57:27.063Z,7.60
2017-07-16T12:59:55.666Z,8.30
2017-07-16T13:02:24.286Z,7.50
2017-07-16T13:04:53.461Z,7.53
2017-07-16T13:07:21.910Z,9.10
2017-07-16T13:09:50.308Z,9.73
2017-07-16T13:12:18.742Z,9.17
2017-07-16T13:14:47.222Z,9.17
2017-07-16T13:17:15.678Z,8.30
2017-07-16T13:19:44.090Z,8.50
2017-07-16T13:22:12.848Z,8.30
2017-07-16T13:24:42.108Z,9.50
2017-07-16T13:27:10.525Z,9.97
2017-07-16T13:29:39.845Z,10.20
2017-07-16T13:32:08.244Z,11.80
2017-07-16T13:34:36.654Z,9.90
2017-07-16T13:37:05.367Z,10.90
2017-07-16T13:39:33.776Z,11.83
2017-07-16T13:42:02.205Z,13.93
2017-07-16T13:44:31.580Z,12.07
2017-07-16T13:47:00.005Z,11.50
2017-07-16T13:49:28.424Z,10.50
2017-07-16T13:51:56.867Z,10.10
2017-07-16T13:54:25.271Z,10.03
2017-07-16T13:56:53.666Z,9.93
2017-07-16T13:59:22.311Z,9.57
2017-07-16T14:01:50.707Z,9.40
2017-07-16T14:04:19.104Z,9.70
2017-07-16T14:06:47.816Z,10.27
2017-07-16T14:09:16.233Z,9.63
2017-07-16T14:11:44.626Z,10.17
2017-07-16T14:14:13.165Z,9.80
2017-07-16T14:16:41.569Z,9.93
2017-07-16T14:19:09.976Z,11.00
2017-07-16T14:21:38.401Z,9.10
2017-07-16T14:24:07.595Z,8.20
2017-07-16T14:26:36.016Z,8.03
2017-07-16T14:29:04.680Z,7.70
2017-07-16T14:31:33.099Z,5.70
2017-07-16T14:34:01.517Z,5.87
2017-07-16T14:36:30.048Z,5.90
2017-07-16T14:38:58.439Z,5.00
2017-07-16T14:41:26.844Z,6.50
2017-07-16T14:43:55.668Z,5.63
2017-07-16T14:46:24.071Z,5.80
2017-07-16T14:48:52.516Z,6.33
2017-07-16T14:51:21.031Z,5.47
2017-07-16T14:53:49.435Z,6.83
2017-07-16T14:56:17.837Z,6.40
2017-07-16T14:58:47.263Z,5.53
2017-07-16T15:01:15.668Z,5.63
2017-07-16T15:03:44.057Z,4.33
2017-07-16T15:06:13.377Z,4.90
2017-07-16T15:08:41.763Z,4.53
2017-07-16T15:11:10.154Z,5.00
2017-07-16T15:13:39.527Z,4.53
2017-07-16T15:16:07.954Z,4.43
2017-07-16T15:18:36.351Z,4.90
2017-07-16T15:21:04.788Z,5.13
2017-07-16T15:23:33.197Z,5.30
2017-07-16T15:26:01.574Z,5.60
2017-07-16T15:28:30.068Z,13.90
2017-07-16T15:30:58.470Z,5.93
2017-07-16T15:33:26.877Z,5.70
2017-07-16T15:35:55.305Z,6.03
2017-07-16T15:38:23.708Z,5.73
2017-07-16T15:40:52.135Z,5.70
2017-07-16T15:43:20.563Z,6.97
2017-07-16T15:45:48.967Z,6.00
2017-07-16T15:48:17.363Z,5.60
2017-07-16T15:50:45.927Z,5.80
2017-07-16T15:53:14.320Z,6.23
2017-07-16T15:55:42.890Z,6.60
2017-07-16T15:58:11.597Z,7.83
2017-07-16T16:00:39.994Z,5.97
2017-07-16T16:03:08.386Z,6.73
2017-07-16T16:05:37.124Z,6.23
2017-07-16T16:08:05.529Z,7.43
2017-07-16T16:10:33.941Z,7.80
2017-07-16T16:13:02.601Z,5.73
2017-07-16T16:15:31.035Z,16.37
2017-07-16T16:17:59.455Z,11.07
2017-07-16T16:20:27.964Z,8.40
2017-07-16T16:22:56.374Z,6.70
2017-07-16T16:25:24.762Z,6.40
2017-07-16T16:27:53.377Z,5.80
2017-07-16T16:30:21.796Z,7.37
2017-07-16T16:32:50.185Z,6.17
2017-07-16T16:35:18.618Z,7.27
2017-07-16T16:37:47.019Z,7.20
2017-07-16T16:40:15.220Z,7.50
2017-07-16T16:42:43.753Z,6.30
2017-07-16T16:45:12.133Z,6.27
2017-07-16T16:47:40.538Z,6.60
2017-07-16T16:50:09.177Z,7.07
2017-07-16T16:52:37.586Z,7.17
2017-07-16T16:55:06.528Z,5.67
2017-07-16T16:57:35.445Z,6.33
2017-07-16T17:00:03.294Z,5.70
2017-07-16T17:02:31.710Z,6.53
2017-07-16T17:05:00.616Z,7.33
2017-07-16T17:07:29.813Z,6.83
2017-07-16T17:09:58.201Z,6.97
2017-07-16T17:12:27.041Z,6.83
2017-07-16T17:14:55.453Z,7.03
2017-07-16T17:17:23.847Z,6.07
2017-07-16T17:19:52.689Z,7.33
2017-07-16T17:22:21.101Z,6.97
2017-07-16T17:24:49.479Z,6.30
2017-07-16T17:27:18.895Z,7.13
2017-07-16T17:29:47.310Z,6.60
2017-07-16T17:32:15.731Z,7.10
2017-07-16T17:34:44.374Z,6.17
2017-07-16T17:37:12.765Z,6.40
2017-07-16T17:39:41.146Z,6.03
2017-07-16T17:42:09.581Z,6.30
2017-07-16T17:44:37.976Z,6.50
2017-07-16T17:47:06.349Z,6.50
2017-07-16T17:49:34.830Z,5.90
2017-07-16T17:52:03.292Z,6.67
2017-07-16T17:54:31.683Z,5.90
2017-07-16T17:57:00.103Z,6.10
2017-07-16T17:59:28.495Z,6.03
2017-07-16T18:01:56.980Z,5.83
2017-07-16T18:04:25.632Z,5.73
2017-07-16T18:06:54.013Z,5.73
2017-07-16T18:09:22.403Z,7.13
2017-07-16T18:11:50.884Z,6.50
2017-07-16T18:14:19.310Z,5.90
2017-07-16T18:16:49.897Z,6.73
2017-07-16T18:19:18.682Z,7.40
2017-07-16T18:21:47.700Z,7.30
2017-07-16T18:24:16.092Z,7.13
2017-07-16T18:26:44.752Z,6.80
2017-07-16T18:29:13.140Z,5.97
2017-07-16T18:31:41.537Z,5.87
2017-07-16T18:34:10.294Z,6.60
2017-07-16T18:36:38.681Z,5.70
2017-07-16T18:39:07.115Z,5.57
2017-07-16T18:41:35.925Z,6.77
2017-07-16T18:44:04.354Z,5.80
2017-07-16T18:46:32.807Z,6.20
2017-07-16T18:49:01.477Z,5.60
2017-07-16T18:51:30.629Z,5.30
2017-07-16T18:53:59.018Z,5.20
2017-07-16T18:56:27.478Z,5.03
2017-07-16T18:58:55.878Z,5.73
2017-07-16T19:01:24.339Z,5.60
2017-07-16T19:03:52.965Z,5.60
2017-07-16T19:06:21.774Z,5.40
2017-07-16T19:08:50.189Z,5.30
2017-07-16T19:11:19.211Z,6.77
2017-07-16T19:13:47.620Z,5.50
2017-07-16T19:16:16.045Z,6.77
2017-07-16T19:18:44.483Z,6.53
2017-07-16T19:21:12.876Z,7.10
2017-07-16T19:23:41.289Z,8.17
2017-07-16T19:26:09.890Z,7.67
2017-07-16T19:28:38.268Z,7.07
2017-07-16T19:31:07.514Z,6.60
2017-07-16T19:33:36.066Z,8.07
2017-07-16T19:36:04.469Z,6.53
2017-07-16T19:38:32.863Z,7.90
2017-07-16T19:41:02.130Z,7.17
2017-07-16T19:43:30.535Z,7.33
2017-07-16T19:46:00.574Z,4.93
2017-07-16T19:48:28.985Z,7.00
2017-07-16T19:50:58.185Z,6.87
2017-07-16T19:53:26.591Z,6.50
2017-07-16T19:55:55.062Z,6.70
2017-07-16T19:58:23.695Z,6.60
2017-07-16T20:00:52.131Z,6.70
2017-07-16T20:03:20.814Z,6.53
2017-07-16T20:05:49.217Z,6.07
2017-07-16T20:08:17.626Z,6.40
2017-07-16T20:10:46.228Z,5.37
2017-07-16T20:13:15.389Z,5.80
2017-07-16T20:15:43.786Z,5.50
2017-07-16T20:18:12.526Z,5.57
2017-07-16T20:20:40.917Z,6.97
2017-07-16T20:23:09.320Z,6.73
2017-07-16T20:25:37.811Z,6.97
2017-07-16T20:28:06.201Z,7.27
2017-07-16T20:30:34.610Z,6.70
2017-07-16T20:33:03.057Z,7.10
2017-07-16T20:35:31.452Z,6.87
2017-07-16T20:37:59.889Z,6.10
2017-07-16T20:40:29.103Z,6.63
2017-07-16T20:42:58.272Z,5.23
2017-07-16T20:45:26.660Z,6.00
2017-07-16T20:47:55.215Z,5.40
2017-07-16T20:50:23.608Z,5.40
2017-07-16T20:52:52.012Z,5.33
2017-07-16T20:55:20.433Z,5.53
2017-07-16T20:57:48.837Z,6.47
2017-07-16T21:00:17.244Z,5.13
2017-07-16T21:02:45.751Z,5.40
2017-07-16T21:05:14.915Z,6.00
2017-07-16T21:07:43.310Z,5.30
2017-07-16T21:10:11.722Z,5.10
2017-07-16T21:12:40.117Z,4.60
2017-07-16T21:15:08.508Z,4.70
2017-07-16T21:17:36.879Z,5.97
2017-07-16T21:20:05.270Z,5.00
2017-07-16T21:22:33.659Z,5.00
2017-07-16T21:25:02.646Z,4.67
2017-07-16T21:27:31.052Z,4.80
2017-07-16T21:29:59.440Z,4.93
2017-07-16T21:32:28.848Z,4.47
2017-07-16T21:34:58.014Z,4.90
2017-07-16T21:37:26.402Z,4.63
2017-07-16T21:39:55.037Z,5.87
2017-07-16T21:42:23.441Z,4.90
2017-07-16T21:44:51.877Z,4.90
2017-07-16T21:47:20.548Z,4.70
2017-07-16T21:49:49.742Z,5.60
2017-07-16T21:52:18.920Z,5.37
2017-07-16T21:54:48.718Z,4.83
2017-07-16T21:57:17.106Z,5.40
2017-07-16T21:59:45.498Z,5.50
2017-07-16T22:02:14.069Z,6.20
2017-07-16T22:04:42.470Z,5.10
2017-07-16T22:07:11.641Z,5.17
2017-07-16T22:09:40.119Z,5.80
2017-07-16T22:12:08.524Z,5.00
2017-07-16T22:14:37.677Z,5.23
2017-07-16T22:17:06.577Z,4.90
2017-07-16T22:19:34.998Z,5.30
2017-07-16T22:22:04.151Z,4.70
2017-07-16T22:24:32.587Z,5.10
2017-07-16T22:27:00.989Z,5.87
2017-07-16T22:29:29.365Z,4.97
2017-07-16T22:31:57.904Z,5.00
2017-07-16T22:34:27.070Z,5.20
2017-07-16T22:36:55.743Z,5.70
2017-07-16T22:39:24.170Z,5.40
2017-07-16T22:41:53.322Z,5.07
2017-07-16T22:44:21.707Z,5.07
2017-07-16T22:46:50.326Z,5.10
2017-07-16T22:49:18.707Z,4.73
2017-07-16T22:51:47.096Z,4.40
2017-07-16T22:54:15.767Z,5.50
2017-07-16T22:56:44.925Z,4.97
2017-07-16T22:59:13.315Z,5.20
2017-07-16T23:01:42.030Z,4.90
2017-07-16T23:04:11.189Z,5.13
2017-07-16T23:06:39.589Z,4.50
2017-07-16T23:09:08.005Z,5.27
2017-07-16T23:11:36.373Z,5.20
2017-07-16T23:14:04.753Z,4.63
2017-07-16T23:16:33.487Z,4.90
2017-07-16T23:19:01.893Z,4.27
2017-07-16T23:21:31.060Z,5.27
2017-07-16T23:23:59.634Z,4.83
2017-07-16T23:26:28.019Z,4.77
2017-07-16T23:28:56.399Z,4.53
2017-07-16T23:31:24.805Z,4.67
2017-07-16T23:33:53.957Z,4.50
2017-07-16T23:36:22.361Z,4.57
2017-07-16T23:38:50.761Z,4.90
2017-07-16T23:41:19.930Z,5.97
2017-07-16T23:43:48.313Z,5.30
2017-07-16T23:46:16.929Z,4.97
2017-07-16T23:48:45.330Z,5.23
2017-07-16T23:51:13.749Z,4.07
2017-07-16T23:53:42.381Z,5.20
2017-07-16T23:56:10.762Z,5.00
2017-07-16T23:58:39.166Z,4.70
